Time;durP1;ratioP1;P1;durP2;ratioP2;P2;SDS_P1;SDS_P2;PMS_P1;PMS_P2;Temp;Humidity;BMP_temperature;BMP_pressure;BME280_temperature;BME280_humidity;BME280_pressure;Samples;Min_cycle;Max_cycle;Signal;HPM_P1;HPM_P2
2021/12/27 00:03:40;;;;;;;40.10;5.13;;;;;;;;;;8284736;28;20044;-84
2021/12/27 00:07:41;;;;;;;9.93;4.90;;;;;;;;;;8267184;28;20495;-84
2021/12/27 00:11:41;;;;;;;16.98;4.80;;;;;;;;;;8273991;28;20253;-84
2021/12/27 00:15:43;;;;;;;24.83;6.47;;;;;;;;;;8285841;28;20828;-84
2021/12/27 00:19:44;;;;;;;21.90;8.88;;;;;;;;;;8272037;28;20269;-84
2021/12/27 00:23:44;;;;;;;12.88;5.80;;;;;;;;;;8273678;28;20040;-84
2021/12/27 00:27:44;;;;;;;27.42;4.72;;;;;;;;;;8273143;28;20129;-84
2021/12/27 00:31:44;;;;;;;7.50;3.88;;;;;;;;;;8270992;28;20046;-84
2021/12/27 00:35:46;;;;;;;106.70;5.38;;;;;;;;;;8273179;28;20038;-84
2021/12/27 00:39:46;;;;;;;34.30;4.60;;;;;;;;;;8272645;28;20029;-84
2021/12/27 00:43:46;;;;;;;59.85;4.80;;;;;;;;;;8272776;28;20029;-83
2021/12/27 00:47:47;;;;;;;21.00;5.18;;;;;;;;;;8272485;28;20329;-84
2021/12/27 00:51:47;;;;;;;48.65;5.47;;;;;;;;;;8270435;28;20671;-84
2021/12/27 00:55:47;;;;;;;70.35;5.40;;;;;;;;;;8272603;28;20771;-84
2021/12/27 00:59:47;;;;;;;42.67;6.13;;;;;;;;;;8272584;28;20041;-84
2021/12/27 01:03:48;;;;;;;30.70;4.80;;;;;;;;;;8270710;28;20096;-84
2021/12/27 01:07:48;;;;;;;28.65;4.20;;;;;;;;;;8273798;28;20929;-84
2021/12/27 01:20:09;;;;;;;5.18;3.28;;;;;;;;;;8270731;28;20129;-83
2021/12/27 01:24:09;;;;;;;23.48;3.58;;;;;;;;;;8271072;28;20021;-84
2021/12/27 01:28:10;;;;;;;51.85;4.85;;;;;;;;;;8268442;28;20149;-84
2021/12/27 01:32:10;;;;;;;49.92;4.80;;;;;;;;;;8263915;28;20495;-84
2021/12/27 01:36:10;;;;;;;15.50;4.28;;;;;;;;;;8272046;28;20029;-83
2021/12/27 01:40:12;;;;;;;22.67;4.70;;;;;;;;;;8271623;28;20040;-84
2021/12/27 01:44:13;;;;;;;31.08;4.47;;;;;;;;;;8271474;28;20025;-84
2021/12/27 01:48:16;;;;;;;14.65;3.83;;;;;;;;;;8269478;28;20103;-83
2021/12/27 01:52:16;;;;;;;11.38;3.50;;;;;;;;;;8278820;28;20108;-84
2021/12/27 01:56:17;;;;;;;5.18;3.42;;;;;;;;;;8271343;28;20072;-84
2021/12/27 02:00:18;;;;;;;8.07;3.33;;;;;;;;;;8269694;28;20679;-83
2021/12/27 02:04:18;;;;;;;27.80;3.72;;;;;;;;;;8273391;28;20096;-83
2021/12/27 02:08:24;;;;;;;10.32;3.78;;;;;;;;;;8281776;28;20153;-84
2021/12/27 02:12:24;;;;;;;9.75;4.15;;;;;;;;;;8271727;28;20029;-84
2021/12/27 02:16:25;;;;;;;54.00;5.13;;;;;;;;;;8270240;28;20132;-83
2021/12/27 02:20:27;;;;;;;21.08;4.13;;;;;;;;;;8282130;28;20327;-84
2021/12/27 02:24:27;;;;;;;146.38;6.10;;;;;;;;;;8269573;28;20037;-83
2021/12/27 02:28:27;;;;;;;49.47;4.78;;;;;;;;;;8270423;28;20025;-83
2021/12/27 02:32:27;;;;;;;98.75;5.13;;;;;;;;;;8268596;28;20168;-84
2021/12/27 02:36:27;;;;;;;136.68;5.57;;;;;;;;;;8270145;28;20037;-84
2021/12/27 02:40:29;;;;;;;294.88;8.20;;;;;;;;;;8271729;28;20022;-84
2021/12/27 02:44:29;;;;;;;26.80;3.38;;;;;;;;;;8271319;28;20831;-84
2021/12/27 02:48:31;;;;;;;25.02;3.78;;;;;;;;;;8279360;28;20048;-83
2021/12/27 02:52:31;;;;;;;178.77;6.03;;;;;;;;;;8268585;28;20116;-84
2021/12/27 02:56:33;;;;;;;61.42;3.88;;;;;;;;;;8270531;28;20904;-83
2021/12/27 03:00:37;;;;;;;41.38;3.72;;;;;;;;;;8270168;28;20044;-83
2021/12/27 03:04:37;;;;;;;;;;;;;;;;;;8269156;28;20037;-83
2021/12/27 03:08:38;;;;;;;19.85;3.00;;;;;;;;;;8269327;28;19914;-83
2021/12/27 03:12:39;;;;;;;22.90;3.80;;;;;;;;;;8271421;28;20026;-84
2021/12/27 03:16:39;;;;;;;11.73;3.63;;;;;;;;;;8276393;28;20041;-83
2021/12/27 03:20:39;;;;;;;30.00;3.65;;;;;;;;;;8275659;28;20276;-83
2021/12/27 03:24:39;;;;;;;12.23;3.42;;;;;;;;;;8276027;28;20652;-83
2021/12/27 03:28:40;;;;;;;4.70;2.85;;;;;;;;;;8273347;28;20032;-83
2021/12/27 03:32:41;;;;;;;3.85;2.53;;;;;;;;;;8266476;28;20291;-83
2021/12/27 03:36:42;;;;;;;3.95;2.97;;;;;;;;;;8268518;28;20026;-83
2021/12/27 03:40:44;;;;;;;4.10;2.55;;;;;;;;;;8275567;28;20609;-83
2021/12/27 03:44:44;;;;;;;4.07;2.60;;;;;;;;;;8273467;28;20026;-83
2021/12/27 03:48:45;;;;;;;4.90;2.70;;;;;;;;;;8274474;28;20038;-83
2021/12/27 03:52:45;;;;;;;3.70;2.88;;;;;;;;;;8275308;28;20034;-84
2021/12/27 03:56:45;;;;;;;11.20;3.55;;;;;;;;;;8275083;28;20091;-83
2021/12/27 04:01:01;;;;;;;8.07;3.50;;;;;;;;;;8273704;28;20045;-83
2021/12/27 04:05:02;;;;;;;7.40;3.65;;;;;;;;;;8272249;28;20280;-83
2021/12/27 04:09:02;;;;;;;10.70;4.30;;;;;;;;;;8272120;28;20136;-83
2021/12/27 04:13:03;;;;;;;128.70;6.13;;;;;;;;;;8283262;28;20318;-83
2021/12/27 04:17:03;;;;;;;204.45;7.68;;;;;;;;;;8272130;28;20099;-83
2021/12/27 04:21:03;;;;;;;38.72;3.92;;;;;;;;;;8273716;28;20446;-83
2021/12/27 04:25:04;;;;;;;24.50;3.37;;;;;;;;;;8274051;28;20352;-83
2021/12/27 04:29:05;;;;;;;45.25;3.20;;;;;;;;;;8272532;28;20709;-84
2021/12/27 04:33:05;;;;;;;219.25;6.45;;;;;;;;;;8270829;28;20055;-83
2021/12/27 04:37:05;;;;;;;291.35;7.55;;;;;;;;;;8273208;28;20486;-83
2021/12/27 04:41:06;;;;;;;227.68;7.53;;;;;;;;;;8270620;28;20863;-83
2021/12/27 04:45:07;;;;;;;117.47;4.57;;;;;;;;;;8265845;28;20017;-83
2021/12/27 04:49:08;;;;;;;123.90;4.95;;;;;;;;;;8272624;28;20028;-83
2021/12/27 04:53:08;;;;;;;82.55;4.05;;;;;;;;;;8272508;28;20153;-83
2021/12/27 04:57:09;;;;;;;440.60;10.20;;;;;;;;;;8272167;28;20022;-83
2021/12/27 05:01:09;;;;;;;392.02;9.02;;;;;;;;;;8270388;28;21003;-83
2021/12/27 05:05:10;;;;;;;490.67;11.48;;;;;;;;;;8271547;28;20025;-83
2021/12/27 05:09:11;;;;;;;421.25;11.00;;;;;;;;;;8270886;28;20598;-83
2021/12/27 05:13:11;;;;;;;424.17;11.40;;;;;;;;;;8269991;28;20757;-83
2021/12/27 05:17:11;;;;;;;410.15;12.40;;;;;;;;;;8268000;28;20069;-83
2021/12/27 05:21:11;;;;;;;83.95;9.48;;;;;;;;;;8270631;28;20755;-83
2021/12/27 05:25:14;;;;;;;34.67;5.40;;;;;;;;;;8279925;28;20029;-83
2021/12/27 05:29:14;;;;;;;17.13;6.78;;;;;;;;;;8272188;28;20252;-84
2021/12/27 05:33:15;;;;;;;10.27;4.18;;;;;;;;;;8265988;28;20437;-82
2021/12/27 05:37:16;;;;;;;109.78;6.13;;;;;;;;;;8286456;28;20543;-83
2021/12/27 05:41:16;;;;;;;99.28;5.53;;;;;;;;;;8271675;28;20034;-82
2021/12/27 05:45:16;;;;;;;209.60;8.13;;;;;;;;;;8269632;28;20026;-82
2021/12/27 05:49:17;;;;;;;137.50;6.47;;;;;;;;;;8268516;28;20380;-82
2021/12/27 05:53:17;;;;;;;12.93;4.20;;;;;;;;;;8268652;28;20021;-82
2021/12/27 05:57:17;;;;;;;9.20;3.80;;;;;;;;;;8270104;28;20025;-83
2021/12/27 06:01:17;;;;;;;4.38;3.53;;;;;;;;;;8268191;28;20597;-82
2021/12/27 06:05:18;;;;;;;76.82;5.18;;;;;;;;;;8270050;28;20036;-83
2021/12/27 06:09:18;;;;;;;93.03;6.93;;;;;;;;;;8270338;28;20500;-82
2021/12/27 06:13:18;;;;;;;28.02;4.68;;;;;;;;;;8269640;28;20280;-82
2021/12/27 06:17:18;;;;;;;25.98;3.80;;;;;;;;;;8266737;28;20041;-82
2021/12/27 06:21:18;;;;;;;20.55;3.53;;;;;;;;;;8270523;28;20025;-83
2021/12/27 06:25:19;;;;;;;53.28;3.97;;;;;;;;;;8270082;28;20087;-83
2021/12/27 06:29:19;;;;;;;8.77;2.53;;;;;;;;;;8269330;28;20033;-82
2021/12/27 06:33:20;;;;;;;21.33;3.07;;;;;;;;;;8270005;28;20969;-83
2021/12/27 06:37:20;;;;;;;5.18;3.08;;;;;;;;;;8269738;28;20839;-83
2021/12/27 06:41:24;;;;;;;12.63;3.95;;;;;;;;;;8271324;28;20025;-83
2021/12/27 06:45:25;;;;;;;3.53;2.80;;;;;;;;;;8269126;28;20388;-83
2021/12/27 06:49:26;;;;;;;4.65;3.28;;;;;;;;;;8282530;28;20992;-83
2021/12/27 06:53:31;;;;;;;3.53;2.72;;;;;;;;;;8269996;28;20482;-83
2021/12/27 06:57:31;;;;;;;14.73;9.02;;;;;;;;;;8276577;28;20026;-83
2021/12/27 07:01:31;;;;;;;10.00;6.60;;;;;;;;;;8273701;28;20125;-83
2021/12/27 07:05:31;;;;;;;13.60;7.30;;;;;;;;;;8274046;28;20037;-83
2021/12/27 07:09:32;;;;;;;10.88;6.90;;;;;;;;;;8277030;28;20401;-82
2021/12/27 07:13:32;;;;;;;17.92;8.95;;;;;;;;;;8274977;28;20030;-83
2021/12/27 07:17:32;;;;;;;54.67;27.03;;;;;;;;;;8275040;28;20042;-77
2021/12/27 07:21:32;;;;;;;70.10;25.70;;;;;;;;;;8274379;28;20276;-77
2021/12/27 07:25:33;;;;;;;85.65;20.85;;;;;;;;;;8274433;28;20029;-78
2021/12/27 07:29:33;;;;;;;76.07;27.13;;;;;;;;;;8285501;28;20686;-77
2021/12/27 07:33:34;;;;;;;36.22;10.57;;;;;;;;;;8271299;28;20920;-78
2021/12/27 07:37:34;;;;;;;67.30;10.68;;;;;;;;;;8270077;28;20522;-77
2021/12/27 07:41:34;;;;;;;116.05;9.13;;;;;;;;;;8273871;28;20144;-77
2021/12/27 07:45:34;;;;;;;51.65;7.50;;;;;;;;;;8269888;28;20041;-77
2021/12/27 07:49:36;;;;;;;82.53;6.70;;;;;;;;;;8275381;28;20036;-78
2021/12/27 07:53:37;;;;;;;27.10;5.43;;;;;;;;;;8274824;28;20435;-77
2021/12/27 07:57:37;;;;;;;79.78;8.68;;;;;;;;;;8272118;28;20814;-77
2021/12/27 08:01:38;;;;;;;177.45;9.35;;;;;;;;;;8271393;28;20839;-77
2021/12/27 08:05:38;;;;;;;58.35;6.80;;;;;;;;;;8272272;28;20029;-77
2021/12/27 08:09:39;;;;;;;67.35;8.63;;;;;;;;;;8275275;28;20989;-77
2021/12/27 08:13:42;;;;;;;43.10;7.05;;;;;;;;;;8275100;28;20047;-77
2021/12/27 08:17:42;;;;;;;58.03;8.63;;;;;;;;;;8266535;28;20506;-77
2021/12/27 08:21:42;;;;;;;59.30;9.55;;;;;;;;;;8273417;28;20033;-77
2021/12/27 08:25:42;;;;;;;103.43;10.07;;;;;;;;;;8274971;28;20064;-77
2021/12/27 08:29:43;;;;;;;84.38;10.55;;;;;;;;;;8274848;28;20288;-77
2021/12/27 08:33:43;;;;;;;94.30;10.25;;;;;;;;;;8271646;28;20041;-77
2021/12/27 08:37:44;;;;;;;131.45;14.55;;;;;;;;;;8273575;28;20032;-77
2021/12/27 08:41:44;;;;;;;106.75;12.35;;;;;;;;;;8273247;28;20483;-78
2021/12/27 08:45:44;;;;;;;82.88;12.80;;;;;;;;;;8274695;28;20187;-77
2021/12/27 08:49:45;;;;;;;141.80;13.80;;;;;;;;;;8272008;28;20030;-77
2021/12/27 08:53:45;;;;;;;119.10;10.80;;;;;;;;;;8274411;28;20759;-78
2021/12/27 08:57:45;;;;;;;49.00;11.57;;;;;;;;;;8265531;28;20411;-77
2021/12/27 09:01:45;;;;;;;23.10;11.77;;;;;;;;;;8270211;28;20042;-77
2021/12/27 09:05:45;;;;;;;18.88;11.90;;;;;;;;;;8271250;28;20030;-77
2021/12/27 09:09:46;;;;;;;14.25;9.85;;;;;;;;;;8272683;28;20103;-77
2021/12/27 09:13:46;;;;;;;14.15;9.35;;;;;;;;;;8268022;28;20030;-78
2021/12/27 09:17:46;;;;;;;11.40;8.27;;;;;;;;;;8270885;28;20046;-77
2021/12/27 09:21:46;;;;;;;8.27;5.43;;;;;;;;;;8269459;28;20026;-77
2021/12/27 09:25:47;;;;;;;6.47;5.10;;;;;;;;;;8262859;28;20575;-77
2021/12/27 09:29:49;;;;;;;8.35;5.97;;;;;;;;;;8273695;28;20812;-77
2021/12/27 09:33:49;;;;;;;17.00;8.25;;;;;;;;;;8270654;28;20054;-77
2021/12/27 09:37:49;;;;;;;37.47;13.32;;;;;;;;;;8272292;28;20037;-78
2021/12/27 09:41:49;;;;;;;499.17;25.77;;;;;;;;;;8271819;28;20698;-77
2021/12/27 09:45:50;;;;;;;273.92;19.08;;;;;;;;;;8262399;28;20589;-77
2021/12/27 09:49:50;;;;;;;258.23;18.00;;;;;;;;;;8263208;28;20089;-77
2021/12/27 09:53:51;;;;;;;109.88;17.75;;;;;;;;;;8261736;28;20087;-77
2021/12/27 09:57:51;;;;;;;35.92;17.42;;;;;;;;;;8261431;28;20057;-77
2021/12/27 10:01:52;;;;;;;30.25;16.20;;;;;;;;;;8261538;28;20034;-77
2021/12/27 10:05:52;;;;;;;27.35;17.35;;;;;;;;;;8263371;28;20032;-77
2021/12/27 10:09:53;;;;;;;30.67;16.98;;;;;;;;;;8262433;28;20481;-77
2021/12/27 10:13:57;;;;;;;53.38;15.02;;;;;;;;;;8270957;28;20036;-77
2021/12/27 10:18:05;;;;;;;39.33;13.38;;;;;;;;;;8271383;28;20954;-77
2021/12/27 10:22:10;;;;;;;147.65;13.57;;;;;;;;;;8271749;28;20105;-77
2021/12/27 10:26:15;;;;;;;188.55;13.30;;;;;;;;;;8281210;28;20025;-77
2021/12/27 10:30:20;;;;;;;445.92;17.60;;;;;;;;;;8279638;28;20026;-77
2021/12/27 10:34:22;;;;;;;121.72;10.20;;;;;;;;;;8275681;28;20049;-76
2021/12/27 10:38:24;;;;;;;150.40;12.20;;;;;;;;;;8277921;28;20049;-77
2021/12/27 10:42:35;;;;;;;303.13;12.80;;;;;;;;;;8278081;28;20056;-76
2021/12/27 10:46:35;;;;;;;340.88;14.15;;;;;;;;;;8296188;28;20037;-76
2021/12/27 10:50:37;;;;;;;438.15;15.23;;;;;;;;;;8275508;28;20116;-76
2021/12/27 10:54:38;;;;;;;479.45;15.32;;;;;;;;;;8278379;28;20483;-77
2021/12/27 10:58:44;;;;;;;863.60;24.70;;;;;;;;;;8278390;28;20848;-77
2021/12/27 11:02:45;;;;;;;953.88;24.80;;;;;;;;;;8276970;28;20044;-77
2021/12/27 11:06:46;;;;;;;758.00;21.92;;;;;;;;;;8277554;28;20931;-77
2021/12/27 11:10:46;;;;;;;782.03;21.75;;;;;;;;;;8277570;28;20022;-77
2021/12/27 11:14:46;;;;;;;608.63;16.42;;;;;;;;;;8276063;28;20036;-76
2021/12/27 11:18:46;;;;;;;533.90;13.48;;;;;;;;;;8277217;28;20312;-76
2021/12/27 11:22:49;;;;;;;756.00;19.33;;;;;;;;;;8276836;28;20817;-76
2021/12/27 11:26:55;;;;;;;714.30;18.17;;;;;;;;;;8277630;28;20032;-76
2021/12/27 11:30:56;;;;;;;725.70;18.63;;;;;;;;;;8276536;28;20036;-77
2021/12/27 11:34:58;;;;;;;654.05;18.30;;;;;;;;;;8275779;28;20558;-76
2021/12/27 11:39:16;;;;;;;392.70;15.10;;;;;;;;;;8287701;28;20034;-77
2021/12/27 11:43:16;;;;;;;321.50;13.13;;;;;;;;;;8276043;28;20720;-77
2021/12/27 11:47:24;;;;;;;485.05;17.52;;;;;;;;;;8275313;28;20152;-77
2021/12/27 11:51:30;;;;;;;435.50;14.93;;;;;;;;;;8276210;28;20121;-77
2021/12/27 11:55:38;;;;;;;361.95;13.00;;;;;;;;;;8274001;28;20025;-76
2021/12/27 11:59:39;;;;;;;544.47;16.35;;;;;;;;;;8276757;28;20080;-77
2021/12/27 12:03:41;;;;;;;567.90;26.02;;;;;;;;;;8272294;28;20041;-76
2021/12/27 12:07:41;;;;;;;592.08;19.02;;;;;;;;;;8264537;28;20048;-77
2021/12/27 12:11:42;;;;;;;662.65;32.42;;;;;;;;;;8274732;28;20025;-77
2021/12/27 12:15:57;;;;;;;612.92;23.08;;;;;;;;;;8274767;28;20041;-76
2021/12/27 12:19:57;;;;;;;502.30;26.48;;;;;;;;;;8274729;28;20025;-77
2021/12/27 12:23:59;;;;;;;655.00;26.88;;;;;;;;;;8273539;28;20471;-76
2021/12/27 12:28:01;;;;;;;312.80;18.40;;;;;;;;;;8273728;28;20021;-77
2021/12/27 12:32:03;;;;;;;484.35;24.00;;;;;;;;;;8273440;28;20046;-77
2021/12/27 12:36:04;;;;;;;634.50;26.15;;;;;;;;;;8273027;28;20053;-76
2021/12/27 12:40:05;;;;;;;336.40;19.77;;;;;;;;;;8274191;28;20036;-76
2021/12/27 12:44:05;;;;;;;330.45;28.23;;;;;;;;;;8274337;28;20026;-76
2021/12/27 12:48:05;;;;;;;354.90;24.08;;;;;;;;;;8271869;28;20053;-77
2021/12/27 12:52:05;;;;;;;292.00;28.70;;;;;;;;;;8275779;28;20574;-77
2021/12/27 12:56:06;;;;;;;500.33;26.67;;;;;;;;;;8272171;28;20337;-76
2021/12/27 13:00:07;;;;;;;368.40;27.35;;;;;;;;;;8272516;28;20026;-77
2021/12/27 13:04:07;;;;;;;358.63;21.35;;;;;;;;;;8272672;28;20029;-77
2021/12/27 13:08:11;;;;;;;476.50;36.05;;;;;;;;;;8273133;28;20108;-77
2021/12/27 13:12:12;;;;;;;268.65;14.68;;;;;;;;;;8271874;28;20136;-77
2021/12/27 13:16:12;;;;;;;330.77;12.75;;;;;;;;;;8272920;28;20037;-77
2021/12/27 13:20:14;;;;;;;447.08;14.82;;;;;;;;;;8272094;28;20507;-77
2021/12/27 13:24:14;;;;;;;251.18;10.90;;;;;;;;;;8272802;28;20100;-77
2021/12/27 13:28:15;;;;;;;312.10;11.65;;;;;;;;;;8272138;28;20013;-76
2021/12/27 13:32:15;;;;;;;300.23;11.13;;;;;;;;;;8270955;28;20037;-76
2021/12/27 13:36:20;;;;;;;61.97;9.35;;;;;;;;;;8272377;28;20022;-76
2021/12/27 13:40:20;;;;;;;388.45;13.65;;;;;;;;;;8272594;28;20420;-77
2021/12/27 13:44:31;;;;;;;315.98;12.90;;;;;;;;;;8273711;28;20043;-77
2021/12/27 13:48:32;;;;;;;330.48;17.20;;;;;;;;;;8282127;28;20104;-77
2021/12/27 13:52:42;;;;;;;459.33;19.65;;;;;;;;;;8273553;28;20025;-76
2021/12/27 13:56:45;;;;;;;359.92;14.93;;;;;;;;;;8270350;28;20061;-77
2021/12/27 14:00:47;;;;;;;389.63;16.52;;;;;;;;;;8273985;28;20124;-77
2021/12/27 14:05:00;;;;;;;416.38;18.45;;;;;;;;;;8268650;28;20127;-77
2021/12/27 14:09:00;;;;;;;271.92;15.45;;;;;;;;;;8270953;28;20156;-77
2021/12/27 14:13:01;;;;;;;275.23;15.55;;;;;;;;;;8272180;28;20542;-77
2021/12/27 14:17:06;;;;;;;257.80;15.15;;;;;;;;;;8271048;28;20052;-77
2021/12/27 14:21:06;;;;;;;101.80;15.02;;;;;;;;;;8270531;28;20032;-77
2021/12/27 14:25:06;;;;;;;215.63;16.63;;;;;;;;;;8272547;28;20030;-76
2021/12/27 14:29:16;;;;;;;76.57;14.02;;;;;;;;;;8271832;28;20085;-77
2021/12/27 14:33:17;;;;;;;19.52;11.73;;;;;;;;;;8283602;28;20084;-77
2021/12/27 14:37:17;;;;;;;18.63;10.82;;;;;;;;;;8270523;28;20017;-77
2021/12/27 14:41:17;;;;;;;18.17;11.55;;;;;;;;;;8268595;28;20029;-77
2021/12/27 14:45:18;;;;;;;14.90;11.32;;;;;;;;;;8273350;28;20053;-76
2021/12/27 14:49:19;;;;;;;16.75;11.32;;;;;;;;;;8272088;28;20057;-77
2021/12/27 14:53:19;;;;;;;21.40;11.25;;;;;;;;;;8271825;28;20017;-77
2021/12/27 14:57:19;;;;;;;18.27;12.30;;;;;;;;;;8271231;28;20435;-77
2021/12/27 15:01:20;;;;;;;18.80;12.70;;;;;;;;;;8272060;28;20156;-77
2021/12/27 15:05:20;;;;;;;15.20;11.43;;;;;;;;;;8268772;28;20038;-76
2021/12/27 15:09:20;;;;;;;17.23;11.77;;;;;;;;;;8273399;28;20498;-77
2021/12/27 15:13:21;;;;;;;15.07;10.70;;;;;;;;;;8277500;28;20129;-77
2021/12/27 15:17:23;;;;;;;18.20;10.75;;;;;;;;;;8276155;28;20897;-76
2021/12/27 15:21:23;;;;;;;18.08;12.10;;;;;;;;;;8278521;28;20099;-77
2021/12/27 15:25:23;;;;;;;18.92;12.05;;;;;;;;;;8268258;28;20471;-77
2021/12/27 15:29:24;;;;;;;15.93;11.88;;;;;;;;;;8277394;28;20053;-76
2021/12/27 15:33:27;;;;;;;17.17;12.38;;;;;;;;;;8276067;28;20113;-77
2021/12/27 15:37:27;;;;;;;16.63;11.63;;;;;;;;;;8275654;28;20462;-77
2021/12/27 15:41:28;;;;;;;19.20;12.48;;;;;;;;;;8276368;28;20211;-77
2021/12/27 15:45:28;;;;;;;14.50;10.05;;;;;;;;;;8290442;28;20041;-77
2021/12/27 15:49:29;;;;;;;13.75;9.63;;;;;;;;;;8269032;28;20038;-76
2021/12/27 15:53:30;;;;;;;12.63;8.85;;;;;;;;;;8256227;28;20164;-77
2021/12/27 15:57:32;;;;;;;10.60;7.75;;;;;;;;;;8257150;28;20021;-77
2021/12/27 16:01:32;;;;;;;10.63;7.85;;;;;;;;;;8266014;28;20042;-77
2021/12/27 16:05:32;;;;;;;10.70;8.38;;;;;;;;;;8274195;28;20041;-77
2021/12/27 16:09:33;;;;;;;11.82;8.77;;;;;;;;;;8272551;28;20026;-77
2021/12/27 16:13:34;;;;;;;13.70;9.68;;;;;;;;;;8272732;28;20961;-77
2021/12/27 16:17:34;;;;;;;14.20;9.95;;;;;;;;;;8271975;28;20165;-77
2021/12/27 16:21:35;;;;;;;13.27;9.38;;;;;;;;;;8272494;28;20057;-76
2021/12/27 16:25:35;;;;;;;13.60;9.63;;;;;;;;;;8272140;28;20152;-76
2021/12/27 16:29:36;;;;;;;14.73;10.00;;;;;;;;;;8272820;28;20036;-77
2021/12/27 16:33:36;;;;;;;14.37;9.80;;;;;;;;;;8270130;28;20292;-76
2021/12/27 16:37:36;;;;;;;13.93;10.10;;;;;;;;;;8273890;28;20486;-77
2021/12/27 16:41:37;;;;;;;16.20;11.05;;;;;;;;;;8273985;28;20340;-77
2021/12/27 16:45:38;;;;;;;16.05;9.85;;;;;;;;;;8263918;28;20045;-77
2021/12/27 16:49:39;;;;;;;15.32;10.48;;;;;;;;;;8272246;28;20467;-76
2021/12/27 16:53:39;;;;;;;13.98;9.10;;;;;;;;;;8270731;28;20109;-76
2021/12/27 16:57:41;;;;;;;13.85;8.95;;;;;;;;;;8272331;28;20099;-76
2021/12/27 17:01:42;;;;;;;13.07;9.68;;;;;;;;;;8269702;28;20037;-77
2021/12/27 17:05:43;;;;;;;16.52;11.20;;;;;;;;;;8268026;28;20164;-76
2021/12/27 17:09:43;;;;;;;13.98;9.77;;;;;;;;;;8271592;28;20053;-76
2021/12/27 17:13:44;;;;;;;17.97;11.73;;;;;;;;;;8271107;28;20721;-76
2021/12/27 17:17:44;;;;;;;20.10;10.70;;;;;;;;;;8262593;28;20281;-76
2021/12/27 17:21:44;;;;;;;14.05;10.45;;;;;;;;;;8281507;28;20087;-76
2021/12/27 17:25:45;;;;;;;15.05;9.48;;;;;;;;;;8268823;28;20026;-76
2021/12/27 17:29:45;;;;;;;14.45;10.52;;;;;;;;;;8270780;28;20909;-77
2021/12/27 17:33:45;;;;;;;12.90;9.77;;;;;;;;;;8267665;28;20037;-77
2021/12/27 17:37:46;;;;;;;13.32;8.60;;;;;;;;;;8271084;28;20431;-77
2021/12/27 17:41:46;;;;;;;10.60;8.10;;;;;;;;;;8269806;28;20034;-77
2021/12/27 17:45:46;;;;;;;11.52;8.32;;;;;;;;;;8268285;28;20516;-77
2021/12/27 17:49:47;;;;;;;12.90;8.47;;;;;;;;;;8269795;28;20130;-77
2021/12/27 17:53:47;;;;;;;10.48;7.65;;;;;;;;;;8263314;28;20276;-77
2021/12/27 17:57:47;;;;;;;16.45;9.93;;;;;;;;;;8268605;28;20029;-77
2021/12/27 18:01:49;;;;;;;24.63;11.82;;;;;;;;;;8268774;28;20042;-78
2021/12/27 18:05:49;;;;;;;27.10;13.75;;;;;;;;;;8266670;28;20852;-77
2021/12/27 18:09:49;;;;;;;16.00;9.68;;;;;;;;;;8270417;28;20033;-77
2021/12/27 18:13:50;;;;;;;12.93;8.60;;;;;;;;;;8268036;28;20060;-77
2021/12/27 18:17:50;;;;;;;12.35;8.90;;;;;;;;;;8267794;28;20038;-77
2021/12/27 18:21:51;;;;;;;12.48;9.10;;;;;;;;;;8269094;28;20443;-77
2021/12/27 18:25:51;;;;;;;15.30;10.10;;;;;;;;;;8268708;28;20045;-77
2021/12/27 18:29:51;;;;;;;14.80;9.95;;;;;;;;;;8283349;28;20034;-77
2021/12/27 18:33:51;;;;;;;13.50;9.77;;;;;;;;;;8265805;28;20042;-77
2021/12/27 18:37:53;;;;;;;17.67;12.63;;;;;;;;;;8268291;28;20088;-77
2021/12/27 18:41:53;;;;;;;20.58;13.35;;;;;;;;;;8270318;28;20316;-76
2021/12/27 18:45:53;;;;;;;16.85;10.77;;;;;;;;;;8271564;28;20919;-76
2021/12/27 18:49:53;;;;;;;13.50;9.00;;;;;;;;;;8275076;28;20032;-76
2021/12/27 18:53:53;;;;;;;16.88;9.25;;;;;;;;;;8273795;28;20731;-77
2021/12/27 18:57:54;;;;;;;13.85;8.75;;;;;;;;;;8273929;28;20029;-77
2021/12/27 19:01:54;;;;;;;12.85;9.23;;;;;;;;;;8270168;28;20037;-77
2021/12/27 19:05:54;;;;;;;18.70;10.20;;;;;;;;;;8272795;28;20057;-77
2021/12/27 19:09:54;;;;;;;24.15;11.48;;;;;;;;;;8277245;28;20029;-77
2021/12/27 19:13:55;;;;;;;16.38;10.05;;;;;;;;;;8275308;28;20022;-77
2021/12/27 19:17:55;;;;;;;13.10;8.93;;;;;;;;;;8263197;28;20068;-77
2021/12/27 19:21:55;;;;;;;17.75;11.15;;;;;;;;;;8274165;28;20565;-77
2021/12/27 19:25:56;;;;;;;15.23;10.23;;;;;;;;;;8267056;28;20045;-77
2021/12/27 19:29:56;;;;;;;32.38;15.32;;;;;;;;;;8273368;28;20104;-77
2021/12/27 19:33:56;;;;;;;21.13;10.50;;;;;;;;;;8271526;28;20970;-77
2021/12/27 19:37:59;;;;;;;11.63;7.43;;;;;;;;;;8271029;28;20103;-77
2021/12/27 19:41:59;;;;;;;10.32;7.28;;;;;;;;;;8274388;28;20017;-77
2021/12/27 19:45:59;;;;;;;18.13;10.98;;;;;;;;;;8273965;28;20038;-77
2021/12/27 19:50:00;;;;;;;9.50;7.53;;;;;;;;;;8268548;28;20033;-77
2021/12/27 19:54:00;;;;;;;13.90;9.35;;;;;;;;;;8271261;28;20272;-77
2021/12/27 19:58:01;;;;;;;12.87;7.63;;;;;;;;;;8274980;28;20966;-83
2021/12/27 20:02:02;;;;;;;17.10;7.63;;;;;;;;;;8265419;28;20297;-82
2021/12/27 20:06:03;;;;;;;12.40;8.18;;;;;;;;;;8267859;28;20021;-81
2021/12/27 20:10:04;;;;;;;7.00;5.50;;;;;;;;;;8272123;28;20140;-81
2021/12/27 20:14:06;;;;;;;6.22;4.47;;;;;;;;;;8270343;28;20779;-82
2021/12/27 20:18:07;;;;;;;4.22;3.15;;;;;;;;;;8269789;28;20053;-83
2021/12/27 20:22:08;;;;;;;2.90;2.60;;;;;;;;;;8272579;28;20018;-82
2021/12/27 20:26:10;;;;;;;3.55;2.38;;;;;;;;;;8273525;28;20359;-83
2021/12/27 20:30:11;;;;;;;2.10;1.85;;;;;;;;;;8275737;28;20360;-82
2021/12/27 20:34:11;;;;;;;1.58;1.48;;;;;;;;;;8271362;28;20034;-82
2021/12/27 20:38:11;;;;;;;2.00;1.85;;;;;;;;;;8271831;28;20140;-81
2021/12/27 20:42:12;;;;;;;2.88;2.13;;;;;;;;;;8274444;28;20021;-83
2021/12/27 20:46:12;;;;;;;1.98;1.80;;;;;;;;;;8273189;28;20041;-81
2021/12/27 20:50:14;;;;;;;2.85;2.60;;;;;;;;;;8271999;28;20026;-83
2021/12/27 20:54:14;;;;;;;3.30;2.47;;;;;;;;;;8271677;28;21061;-81
2021/12/27 20:58:17;;;;;;;2.90;2.60;;;;;;;;;;8272325;28;20044;-82
2021/12/27 21:02:17;;;;;;;2.67;2.10;;;;;;;;;;8272088;28;20633;-81
2021/12/27 21:06:19;;;;;;;2.65;2.25;;;;;;;;;;8262182;28;20029;-82
2021/12/27 21:10:19;;;;;;;5.53;2.53;;;;;;;;;;8264927;28;21182;-82
2021/12/27 21:14:19;;;;;;;3.57;3.27;;;;;;;;;;8273951;28;20103;-82
2021/12/27 21:18:20;;;;;;;7.85;5.10;;;;;;;;;;8266655;28;20276;-81
2021/12/27 21:22:20;;;;;;;5.25;3.65;;;;;;;;;;8270992;28;20041;-81
2021/12/27 21:26:21;;;;;;;6.43;4.30;;;;;;;;;;8262965;28;20022;-82
2021/12/27 21:30:23;;;;;;;7.47;4.22;;;;;;;;;;8263562;28;22101;-82
2021/12/27 21:34:23;;;;;;;8.52;4.28;;;;;;;;;;8264385;28;20149;-82
2021/12/27 21:38:23;;;;;;;11.73;4.00;;;;;;;;;;8269361;28;20034;-81
2021/12/27 21:42:24;;;;;;;8.73;4.45;;;;;;;;;;8271199;28;20691;-82
2021/12/27 21:46:24;;;;;;;13.57;4.80;;;;;;;;;;8269730;28;20049;-82
2021/12/27 21:50:29;;;;;;;10.30;4.70;;;;;;;;;;8262996;28;20032;-82
2021/12/27 21:54:29;;;;;;;7.38;4.32;;;;;;;;;;8264374;28;20273;-82
2021/12/27 21:58:30;;;;;;;7.70;4.82;;;;;;;;;;8271058;28;20030;-81
2021/12/27 22:02:30;;;;;;;12.82;5.00;;;;;;;;;;8269810;28;20763;-82
2021/12/27 22:06:31;;;;;;;11.75;4.00;;;;;;;;;;8269613;28;20064;-81
2021/12/27 22:10:32;;;;;;;9.85;3.45;;;;;;;;;;8269047;28;20817;-82
2021/12/27 22:14:33;;;;;;;13.32;3.80;;;;;;;;;;8268789;28;20458;-82
2021/12/27 22:18:33;;;;;;;11.15;3.35;;;;;;;;;;8265902;28;20048;-81
2021/12/27 22:22:33;;;;;;;13.77;3.70;;;;;;;;;;8277578;28;20069;-82
2021/12/27 22:26:34;;;;;;;14.23;3.83;;;;;;;;;;8278171;28;20036;-81
2021/12/27 22:30:35;;;;;;;15.82;3.40;;;;;;;;;;8274197;28;20061;-82
2021/12/27 22:34:35;;;;;;;15.65;2.88;;;;;;;;;;8291795;28;20494;-80
2021/12/27 22:38:35;;;;;;;15.13;3.60;;;;;;;;;;8275406;28;20260;-81
2021/12/27 22:42:35;;;;;;;14.82;3.42;;;;;;;;;;8267544;28;20225;-81
2021/12/27 22:46:35;;;;;;;17.92;3.35;;;;;;;;;;8273361;28;20050;-81
2021/12/27 22:50:36;;;;;;;25.63;4.75;;;;;;;;;;8275763;28;20910;-82
2021/12/27 22:54:36;;;;;;;21.60;4.35;;;;;;;;;;8274718;28;20025;-81
2021/12/27 22:58:36;;;;;;;17.13;4.15;;;;;;;;;;8273502;28;20041;-82
2021/12/27 23:02:36;;;;;;;19.67;3.55;;;;;;;;;;8274252;28;20034;-81
2021/12/27 23:06:37;;;;;;;14.57;3.47;;;;;;;;;;8272058;28;20056;-81
2021/12/27 23:10:37;;;;;;;15.73;3.53;;;;;;;;;;8273607;28;20077;-81
2021/12/27 23:14:38;;;;;;;20.30;3.72;;;;;;;;;;8277278;28;20034;-81
2021/12/27 23:18:38;;;;;;;19.88;3.40;;;;;;;;;;8275236;28;20125;-80
2021/12/27 23:22:38;;;;;;;13.27;3.55;;;;;;;;;;8275458;28;20634;-81
2021/12/27 23:26:38;;;;;;;28.67;4.05;;;;;;;;;;8273887;28;20034;-82
2021/12/27 23:30:40;;;;;;;27.98;3.80;;;;;;;;;;8271678;28;20435;-81
2021/12/27 23:34:41;;;;;;;23.60;3.90;;;;;;;;;;8274323;28;20031;-81
2021/12/27 23:38:41;;;;;;;18.40;3.00;;;;;;;;;;8274119;28;20113;-81
2021/12/27 23:42:41;;;;;;;22.45;3.47;;;;;;;;;;8265835;28;20479;-82